Time;durP1;ratioP1;P1;durP2;ratioP2;P2;SDS_P1;SDS_P2;PMS_P1;PMS_P2;Temp;Humidity;BMP_temperature;BMP_pressure;BME280_temperature;BME280_humidity;BME280_pressure;Samples;Min_cycle;Max_cycle;Signal;HPM_P1;HPM_P2
2021/07/02 00:01:25;;;;;;;5.93;3.30;;;17.10;99.90;;;;;;5050840;28;20079;-78
2021/07/02 00:03:51;;;;;;;5.63;3.22;;;17.10;99.90;;;;;;5042843;28;20032;-78
2021/07/02 00:06:17;;;;;;;3.35;2.78;;;16.90;99.90;;;;;;5052570;28;20025;-78
2021/07/02 00:08:42;;;;;;;5.88;2.75;;;16.80;99.90;;;;;;5051903;28;20032;-78
2021/07/02 00:11:08;;;;;;;6.88;3.25;;;16.70;99.90;;;;;;5035801;28;20363;-78
2021/07/02 00:13:34;;;;;;;3.20;2.97;;;16.50;99.90;;;;;;5047924;28;20025;-78
2021/07/02 00:16:00;;;;;;;4.13;3.72;;;16.30;99.90;;;;;;5040913;28;20381;-78
2021/07/02 00:18:26;;;;;;;4.13;3.55;;;16.50;99.90;;;;;;5039568;28;20060;-78
2021/07/02 00:20:52;;;;;;;4.22;3.15;;;16.70;99.90;;;;;;5034763;28;20100;-78
2021/07/02 00:23:18;;;;;;;3.35;3.10;;;16.60;99.90;;;;;;5049057;28;20037;-78
2021/07/02 00:25:43;;;;;;;7.05;3.53;;;16.60;99.90;;;;;;5038517;28;20536;-78
2021/07/02 00:28:09;;;;;;;3.75;3.45;;;16.50;99.90;;;;;;5042966;28;20118;-78
2021/07/02 00:30:35;;;;;;;5.15;3.30;;;16.40;99.90;;;;;;5032664;28;20112;-78
2021/07/02 00:33:01;;;;;;;3.95;3.65;;;16.50;99.90;;;;;;5032791;28;20022;-77
2021/07/02 00:35:27;;;;;;;3.88;3.58;;;16.50;99.90;;;;;;5032572;28;20064;-77
2021/07/02 00:37:53;;;;;;;4.40;3.40;;;16.50;99.90;;;;;;5032494;28;20025;-78
2021/07/02 00:40:19;;;;;;;5.50;3.50;;;16.50;99.90;;;;;;5031155;28;20075;-78
2021/07/02 00:42:45;;;;;;;3.83;3.53;;;16.50;99.90;;;;;;5033157;28;20037;-77
2021/07/02 00:45:11;;;;;;;3.40;3.20;;;16.50;99.90;;;;;;5048661;28;20048;-78
2021/07/02 00:47:37;;;;;;;3.45;3.15;;;16.40;99.90;;;;;;5037224;28;20048;-77
2021/07/02 00:50:07;;;;;;;4.10;3.13;;;16.30;99.90;;;;;;5042902;28;20481;-78
2021/07/02 00:52:33;;;;;;;4.70;3.90;;;16.20;99.90;;;;;;5044955;28;20035;-78
2021/07/02 00:54:59;;;;;;;3.05;2.80;;;16.20;99.90;;;;;;5036305;28;20065;-78
2021/07/02 00:57:26;;;;;;;3.53;3.22;;;16.20;99.90;;;;;;5040542;28;20049;-78
2021/07/02 00:59:52;;;;;;;3.97;3.55;;;16.10;99.90;;;;;;5044459;28;20051;-78
2021/07/02 01:02:19;;;;;;;4.15;2.83;;;16.10;99.90;;;;;;5042343;28;20033;-78
2021/07/02 01:04:45;;;;;;;4.35;2.83;;;16.20;99.90;;;;;;5051763;28;20029;-78
2021/07/02 01:07:11;;;;;;;7.20;3.72;;;16.20;99.90;;;;;;5050770;28;20040;-78
2021/07/02 01:09:38;;;;;;;7.22;2.95;;;16.20;99.90;;;;;;5036112;28;20017;-78
2021/07/02 01:12:05;;;;;;;7.07;3.00;;;16.20;99.90;;;;;;5051814;28;20086;-78
2021/07/02 01:14:31;;;;;;;3.97;3.60;;;16.20;99.90;;;;;;5051707;28;20560;-78
2021/07/02 01:16:57;;;;;;;4.88;3.15;;;16.10;99.90;;;;;;5035661;28;20030;-78
2021/07/02 01:19:24;;;;;;;4.07;2.72;;;16.10;99.90;;;;;;5050291;28;20145;-78
2021/07/02 01:21:53;;;;;;;4.55;3.58;;;16.20;99.90;;;;;;5051763;28;20027;-78
2021/07/02 01:24:19;;;;;;;4.05;3.42;;;16.20;99.90;;;;;;5041855;28;20021;-78
2021/07/02 01:26:45;;;;;;;6.78;2.97;;;16.20;99.90;;;;;;5046455;28;20063;-78
2021/07/02 01:29:11;;;;;;;6.88;3.17;;;16.10;99.90;;;;;;5039105;28;20071;-77
2021/07/02 01:31:37;;;;;;;3.10;2.90;;;16.00;99.90;;;;;;5052590;28;20029;-78
2021/07/02 01:34:02;;;;;;;4.90;3.28;;;15.90;99.90;;;;;;5034642;28;20439;-78
2021/07/02 01:36:29;;;;;;;6.43;3.17;;;15.90;99.90;;;;;;5036152;28;20034;-78
2021/07/02 01:38:55;;;;;;;5.32;3.45;;;15.90;99.90;;;;;;5049952;28;20139;-77
2021/07/02 01:41:20;;;;;;;3.92;3.63;;;15.90;99.90;;;;;;5038901;28;20029;-78
2021/07/02 01:43:46;;;;;;;6.78;3.33;;;15.90;99.90;;;;;;5051067;28;20029;-78
2021/07/02 01:46:12;;;;;;;4.03;3.20;;;15.90;99.90;;;;;;5043953;28;20033;-77
2021/07/02 01:48:38;;;;;;;3.47;2.80;;;15.90;99.90;;;;;;5043411;28;20025;-78
2021/07/02 01:51:04;;;;;;;2.95;2.70;;;15.80;99.90;;;;;;5035981;28;20033;-78
2021/07/02 01:53:30;;;;;;;5.00;3.28;;;15.80;99.90;;;;;;5035172;28;20022;-78
2021/07/02 01:55:56;;;;;;;4.20;3.20;;;15.80;99.90;;;;;;5040036;28;20045;-77
2021/07/02 01:58:41;;;;;;;5.18;3.53;;;15.80;99.90;;;;;;5035393;28;20536;-78
2021/07/02 02:01:07;;;;;;;3.30;2.65;;;15.70;99.90;;;;;;5035932;28;20067;-77
2021/07/02 02:03:33;;;;;;;3.33;3.08;;;15.70;99.90;;;;;;5047336;28;20049;-78
2021/07/02 02:06:10;;;;;;;3.00;2.80;;;15.80;99.90;;;;;;5054846;28;20033;-78
2021/07/02 02:08:35;;;;;;;4.90;3.67;;;15.70;99.90;;;;;;5054344;28;20036;-78
2021/07/02 02:11:01;;;;;;;3.80;3.45;;;15.70;99.90;;;;;;5055212;28;20116;-78
2021/07/02 02:13:27;;;;;;;6.28;3.60;;;15.70;99.90;;;;;;5052842;28;20469;-78
2021/07/02 02:15:53;;;;;;;4.10;3.20;;;15.80;99.90;;;;;;5040258;28;20020;-77
2021/07/02 02:18:19;;;;;;;8.45;3.38;;;15.80;99.90;;;;;;5046759;28;20037;-77
2021/07/02 02:20:45;;;;;;;3.90;2.97;;;15.70;99.90;;;;;;5046078;28;20045;-77
2021/07/02 02:23:11;;;;;;;4.05;3.00;;;15.60;99.90;;;;;;5036577;28;20485;-78
2021/07/02 02:25:36;;;;;;;3.78;3.40;;;15.50;99.90;;;;;;5050195;28;20029;-78
2021/07/02 02:28:02;;;;;;;3.80;3.40;;;15.40;99.90;;;;;;5033716;28;20059;-78
2021/07/02 02:30:28;;;;;;;4.30;3.35;;;15.60;99.90;;;;;;5033856;28;20033;-78
2021/07/02 02:32:54;;;;;;;3.70;3.40;;;15.60;99.90;;;;;;5033492;28;20025;-78
2021/07/02 02:35:21;;;;;;;5.15;2.83;;;15.70;99.90;;;;;;5033544;28;20029;-78
2021/07/02 02:37:47;;;;;;;4.95;3.35;;;15.60;99.90;;;;;;5033172;28;20383;-78
2021/07/02 02:40:13;;;;;;;3.33;2.80;;;15.40;99.90;;;;;;5033666;28;20087;-78
2021/07/02 02:42:39;;;;;;;3.45;2.83;;;15.30;99.90;;;;;;5033901;28;20084;-78
2021/07/02 02:45:05;;;;;;;4.10;3.20;;;15.30;99.90;;;;;;5033500;28;20030;-78
2021/07/02 02:47:32;;;;;;;6.70;3.40;;;15.30;99.90;;;;;;5033222;28;20037;-78
2021/07/02 02:49:57;;;;;;;6.18;3.28;;;15.30;99.90;;;;;;5033142;28;20040;-78
2021/07/02 02:52:23;;;;;;;5.10;4.03;;;15.30;99.90;;;;;;5033399;28;20029;-78
2021/07/02 02:54:49;;;;;;;7.25;4.22;;;15.40;99.90;;;;;;5033717;28;20112;-78
2021/07/02 02:57:15;;;;;;;4.72;2.97;;;15.30;99.90;;;;;;5033178;28;20025;-78
2021/07/02 02:59:41;;;;;;;4.88;3.28;;;15.40;99.90;;;;;;5049525;28;20123;-78
2021/07/02 03:02:07;;;;;;;3.17;2.95;;;15.40;99.90;;;;;;5039251;28;20017;-77
2021/07/02 03:04:35;;;;;;;4.43;3.45;;;15.40;99.90;;;;;;5052100;28;20098;-77
2021/07/02 03:07:02;;;;;;;3.38;3.08;;;15.20;99.90;;;;;;5053008;28;20496;-78
2021/07/02 03:09:28;;;;;;;4.53;3.53;;;15.10;99.90;;;;;;5051663;28;20473;-78
2021/07/02 03:11:54;;;;;;;5.55;3.20;;;15.10;99.90;;;;;;5037336;28;20031;-78
2021/07/02 03:14:21;;;;;;;4.30;3.13;;;15.10;99.90;;;;;;5045600;28;20021;-78
2021/07/02 03:16:47;;;;;;;4.15;3.60;;;15.10;99.90;;;;;;5044500;28;20013;-78
2021/07/02 03:21:31;;;;;;;5.53;3.38;;;15.10;99.90;;;;;;5109235;27;20384;-79
2021/07/02 03:23:57;;;;;;;7.65;3.30;;;15.20;99.90;;;;;;5105502;28;20024;-79
2021/07/02 03:26:23;;;;;;;3.47;3.17;;;15.20;99.90;;;;;;5089625;28;20020;-79
2021/07/02 03:28:49;;;;;;;5.40;3.10;;;15.20;99.90;;;;;;5088693;28;20016;-79
2021/07/02 03:31:15;;;;;;;3.22;3.03;;;15.10;99.90;;;;;;5089552;28;20028;-79
2021/07/02 03:33:40;;;;;;;6.10;3.35;;;15.00;99.90;;;;;;5091173;28;20024;-79
2021/07/02 03:36:06;;;;;;;4.88;3.55;;;14.80;99.90;;;;;;5103580;28;20486;-79
2021/07/02 03:38:32;;;;;;;8.88;3.92;;;14.80;99.90;;;;;;5089787;28;20040;-79
2021/07/02 03:40:58;;;;;;;5.13;3.40;;;14.80;99.90;;;;;;5101989;28;20039;-79
2021/07/02 03:43:23;;;;;;;5.53;3.10;;;15.00;99.90;;;;;;5093038;28;20020;-79
2021/07/02 03:45:49;;;;;;;3.70;2.78;;;15.10;99.90;;;;;;5092162;28;20074;-79
2021/07/02 03:48:15;;;;;;;3.70;3.40;;;15.00;99.90;;;;;;5102859;28;20031;-79
2021/07/02 03:50:41;;;;;;;2.95;2.70;;;15.00;99.90;;;;;;5089031;28;20032;-79
2021/07/02 03:53:06;;;;;;;3.05;2.47;;;15.00;99.90;;;;;;5088945;28;20058;-79
2021/07/02 03:55:32;;;;;;;3.85;2.80;;;15.00;99.90;;;;;;5105556;28;20032;-79
2021/07/02 03:57:58;;;;;;;7.20;2.65;;;15.10;99.90;;;;;;5089200;28;20027;-79
2021/07/02 04:00:24;;;;;;;3.00;2.80;;;15.10;99.90;;;;;;5095037;28;20548;-79
2021/07/02 04:02:50;;;;;;;5.40;3.70;;;15.10;99.90;;;;;;5097603;28;20515;-79
2021/07/02 04:05:16;;;;;;;4.45;3.70;;;15.20;99.90;;;;;;5089295;28;20496;-79
2021/07/02 04:07:41;;;;;;;5.80;4.03;;;15.10;99.90;;;;;;5105591;28;20444;-79
2021/07/02 04:10:08;;;;;;;3.60;3.30;;;15.10;99.90;;;;;;5088666;28;20024;-79
2021/07/02 04:12:34;;;;;;;3.63;3.33;;;15.30;99.90;;;;;;5097240;28;20024;-79
2021/07/02 04:15:01;;;;;;;3.38;2.70;;;15.20;99.90;;;;;;5096435;28;20463;-79
2021/07/02 04:17:28;;;;;;;5.47;3.45;;;15.20;99.90;;;;;;5088189;28;20030;-79
2021/07/02 04:19:53;;;;;;;7.18;3.25;;;15.10;99.90;;;;;;5088191;28;20079;-78
2021/07/02 04:22:19;;;;;;;3.45;3.15;;;15.10;99.90;;;;;;5088381;28;20452;-79
2021/07/02 04:24:45;;;;;;;4.90;3.78;;;15.20;99.90;;;;;;5087848;28;20111;-79
2021/07/02 04:27:13;;;;;;;3.47;3.17;;;15.10;99.90;;;;;;5089004;28;20020;-79
2021/07/02 04:29:39;;;;;;;3.75;2.83;;;15.20;99.90;;;;;;5088155;28;20032;-79
2021/07/02 04:32:05;;;;;;;5.53;3.30;;;15.20;99.90;;;;;;5079345;28;20032;-79
2021/07/02 04:34:31;;;;;;;4.93;3.50;;;15.10;99.90;;;;;;5071895;28;20468;-79
2021/07/02 04:36:57;;;;;;;5.03;3.50;;;15.10;99.90;;;;;;5073524;28;20115;-79
2021/07/02 04:39:23;;;;;;;5.05;3.55;;;15.10;99.90;;;;;;5075034;28;20041;-79
2021/07/02 04:41:48;;;;;;;6.43;3.45;;;15.10;99.90;;;;;;5074894;28;20032;-79
2021/07/02 04:44:14;;;;;;;6.03;3.47;;;15.00;99.90;;;;;;5074045;28;20481;-79
2021/07/02 04:46:40;;;;;;;5.88;2.92;;;15.00;99.90;;;;;;5074036;28;20017;-79
2021/07/02 04:49:06;;;;;;;4.05;3.03;;;14.90;99.90;;;;;;5073656;28;20032;-79
2021/07/02 04:51:31;;;;;;;2.90;2.70;;;14.90;99.90;;;;;;5073003;28;20424;-79
2021/07/02 04:53:57;;;;;;;3.72;2.72;;;14.90;99.90;;;;;;5075051;28;20070;-78
2021/07/02 04:56:23;;;;;;;6.28;3.20;;;14.90;99.90;;;;;;5073830;28;20021;-79
2021/07/02 04:58:55;;;;;;;5.75;4.68;;;14.90;99.90;;;;;;5073243;28;20029;-78
2021/07/02 05:01:22;;;;;;;5.47;3.40;;;15.00;99.90;;;;;;5072551;28;20515;-78
2021/07/02 05:03:48;;;;;;;5.00;3.17;;;15.00;99.90;;;;;;5073590;28;20028;-79
2021/07/02 05:06:14;;;;;;;3.83;3.53;;;15.10;99.90;;;;;;5073480;28;20017;-79
2021/07/02 05:08:40;;;;;;;5.97;3.00;;;15.10;99.90;;;;;;5074086;28;20032;-79
2021/07/02 05:11:08;;;;;;;3.40;3.10;;;15.10;99.90;;;;;;5072729;28;20017;-79
2021/07/02 05:13:34;;;;;;;4.47;3.05;;;15.10;99.90;;;;;;5073863;28;20037;-79
2021/07/02 05:15:59;;;;;;;4.03;3.72;;;15.10;99.90;;;;;;5074138;28;20033;-79
2021/07/02 05:18:33;;;;;;;5.90;4.28;;;15.20;99.90;;;;;;5074689;28;20039;-79
2021/07/02 05:21:00;;;;;;;5.55;3.42;;;15.20;99.90;;;;;;5073636;28;20040;-79
2021/07/02 05:23:26;;;;;;;4.10;3.10;;;15.30;99.90;;;;;;5072402;28;20788;-79
2021/07/02 05:25:52;;;;;;;4.60;3.17;;;15.30;99.90;;;;;;5072727;28;20028;-79
2021/07/02 05:28:18;;;;;;;4.65;3.45;;;15.30;99.90;;;;;;5074020;28;20530;-79
2021/07/02 05:30:43;;;;;;;4.97;3.50;;;15.40;99.90;;;;;;5069987;28;20024;-79
2021/07/02 05:33:09;;;;;;;4.50;3.70;;;15.30;99.90;;;;;;5078000;28;20023;-79
2021/07/02 05:35:35;;;;;;;6.95;4.00;;;15.30;99.90;;;;;;5078605;28;20052;-79
2021/07/02 05:38:01;;;;;;;5.60;3.38;;;15.30;99.90;;;;;;5072659;28;20072;-79
2021/07/02 05:40:27;;;;;;;3.85;3.55;;;15.30;99.90;;;;;;5074084;28;20028;-79
2021/07/02 05:42:53;;;;;;;4.20;3.80;;;15.30;99.90;;;;;;5072429;28;20054;-80
2021/07/02 05:45:18;;;;;;;9.10;3.55;;;15.40;99.90;;;;;;5072681;28;20025;-79
2021/07/02 05:47:50;;;;;;;4.72;3.85;;;15.40;99.90;;;;;;5081117;28;20067;-80
2021/07/02 05:50:19;;;;;;;6.47;4.20;;;15.50;99.90;;;;;;5081398;28;20486;-80
2021/07/02 05:52:47;;;;;;;4.60;3.70;;;15.60;99.90;;;;;;5073006;28;20028;-79
2021/07/02 05:55:13;;;;;;;9.05;4.32;;;15.60;99.90;;;;;;5072650;28;20032;-80
2021/07/02 05:57:41;;;;;;;10.23;5.10;;;15.80;99.90;;;;;;5073083;28;20021;-80
2021/07/02 06:00:09;;;;;;;7.30;4.70;;;15.90;99.90;;;;;;5072551;28;20032;-80
2021/07/02 06:02:34;;;;;;;5.85;4.35;;;16.00;99.90;;;;;;5082571;28;20507;-79
2021/07/02 06:05:00;;;;;;;6.10;4.75;;;16.00;99.90;;;;;;5073640;28;20017;-79
2021/07/02 06:07:26;;;;;;;5.78;4.25;;;16.10;99.90;;;;;;5072411;28;20029;-79
2021/07/02 06:09:52;;;;;;;6.65;4.72;;;16.20;99.90;;;;;;5072319;28;20523;-80
2021/07/02 06:12:18;;;;;;;6.47;4.32;;;16.20;99.90;;;;;;5070141;28;20086;-79
2021/07/02 06:14:43;;;;;;;4.03;3.63;;;16.30;99.90;;;;;;5070922;28;20376;-80
2021/07/02 06:17:09;;;;;;;4.85;4.03;;;16.40;99.90;;;;;;5071412;28;20025;-79
2021/07/02 06:19:35;;;;;;;7.43;4.75;;;16.50;99.90;;;;;;5071730;28;20527;-79
2021/07/02 06:22:01;;;;;;;4.25;3.83;;;16.50;99.90;;;;;;5071181;28;20032;-80
2021/07/02 06:24:27;;;;;;;9.95;5.00;;;16.60;99.90;;;;;;5070881;28;20029;-79
2021/07/02 06:26:53;;;;;;;3.83;3.53;;;16.80;99.90;;;;;;5072510;28;20104;-79
2021/07/02 06:29:19;;;;;;;6.55;4.00;;;16.90;99.90;;;;;;5072168;28;20060;-79
2021/07/02 06:31:45;;;;;;;6.47;5.00;;;16.90;99.90;;;;;;5072865;28;20021;-79
2021/07/02 06:34:10;;;;;;;12.73;4.60;;;17.10;99.90;;;;;;5072705;28;20495;-80
2021/07/02 06:36:36;;;;;;;7.32;3.83;;;17.30;99.90;;;;;;5072693;28;20032;-79
2021/07/02 06:39:02;;;;;;;4.90;4.43;;;17.30;99.90;;;;;;5072920;28;20118;-79
2021/07/02 06:41:28;;;;;;;6.68;4.25;;;17.50;99.90;;;;;;5072480;28;20036;-79
2021/07/02 06:43:54;;;;;;;4.95;3.95;;;17.50;99.90;;;;;;5071378;28;20028;-80
2021/07/02 06:46:19;;;;;;;4.07;3.47;;;17.60;99.90;;;;;;5071417;28;20033;-81
2021/07/02 06:48:45;;;;;;;5.95;3.67;;;17.70;99.90;;;;;;5072219;28;20384;-81
2021/07/02 06:51:11;;;;;;;5.40;4.15;;;17.80;99.90;;;;;;5070430;28;20530;-81
2021/07/02 06:53:37;;;;;;;4.80;4.38;;;17.80;99.90;;;;;;5072622;28;20024;-81
2021/07/02 06:56:03;;;;;;;4.68;4.25;;;17.90;99.90;;;;;;5072347;28;20031;-81
2021/07/02 06:58:50;;;;;;;4.38;3.97;;;18.00;99.90;;;;;;5072372;28;20035;-81
2021/07/02 07:01:20;;;;;;;4.93;4.07;;;18.20;99.90;;;;;;5072479;28;20052;-81
2021/07/02 07:03:45;;;;;;;;;;;18.30;99.90;;;;;;5070876;28;20552;-81
2021/07/02 07:06:11;;;;;;;4.40;4.00;;;18.50;99.90;;;;;;5072457;28;19992;-81
2021/07/02 07:08:37;;;;;;;5.30;4.22;;;18.60;99.90;;;;;;5072532;28;20025;-81
2021/07/02 07:11:03;;;;;;;6.47;4.75;;;18.70;99.90;;;;;;5072164;28;20096;-81
2021/07/02 07:13:29;;;;;;;4.50;3.88;;;18.80;99.90;;;;;;5072418;28;20028;-81
2021/07/02 07:15:54;;;;;;;4.38;3.58;;;18.80;99.90;;;;;;5072450;28;20512;-81
2021/07/02 07:18:21;;;;;;;4.82;4.18;;;18.90;99.90;;;;;;5072427;28;20032;-80
2021/07/02 07:20:47;;;;;;;5.07;3.28;;;19.10;99.90;;;;;;5072158;28;20049;-81
2021/07/02 07:23:13;;;;;;;6.32;3.78;;;19.10;99.90;;;;;;5072182;28;20111;-81
2021/07/02 07:25:39;;;;;;;6.28;3.95;;;19.20;99.90;;;;;;5072204;28;20059;-81
2021/07/02 07:28:05;;;;;;;3.33;3.13;;;19.40;99.90;;;;;;5072256;28;20400;-81
2021/07/02 07:30:31;;;;;;;7.30;4.00;;;19.60;99.90;;;;;;5072322;28;20494;-81
2021/07/02 07:33:18;;;;;;;4.10;3.30;;;19.70;99.90;;;;;;5070752;28;20119;-81
2021/07/02 07:35:52;;;;;;;7.97;3.88;;;19.90;99.90;;;;;;5072244;28;20396;-81
2021/07/02 07:38:19;;;;;;;6.82;3.65;;;20.10;99.90;;;;;;5072201;28;20036;-81
2021/07/02 07:40:45;;;;;;;3.60;3.30;;;20.20;99.90;;;;;;5071773;28;20614;-81
2021/07/02 07:43:11;;;;;;;9.05;3.33;;;20.40;99.90;;;;;;5072139;28;20108;-81
2021/07/02 07:45:36;;;;;;;3.67;3.30;;;20.60;99.90;;;;;;5072104;28;20028;-81
2021/07/02 07:48:03;;;;;;;3.92;3.53;;;20.90;99.90;;;;;;5072053;28;20094;-81
2021/07/02 07:50:31;;;;;;;4.65;3.03;;;21.30;99.90;;;;;;5072178;28;20099;-81
2021/07/02 07:53:01;;;;;;;5.70;3.45;;;21.60;99.90;;;;;;5072182;28;20031;-81
2021/07/02 07:55:28;;;;;;;4.78;3.60;;;21.80;99.90;;;;;;5071594;28;20559;-81
2021/07/02 07:57:54;;;;;;;3.83;3.50;;;22.00;99.90;;;;;;5071952;28;20505;-81
2021/07/02 08:00:21;;;;;;;3.70;3.40;;;21.90;99.90;;;;;;5071922;28;20080;-81
2021/07/02 08:02:47;;;;;;;4.75;3.70;;;21.70;99.90;;;;;;5078398;28;20028;-81
2021/07/02 08:05:13;;;;;;;4.07;3.78;;;21.90;99.90;;;;;;5092039;28;20026;-81
2021/07/02 08:07:42;;;;;;;4.13;3.70;;;22.20;99.90;;;;;;5094761;28;20032;-81
2021/07/02 08:10:10;;;;;;;3.28;2.97;;;22.40;99.90;;;;;;5095621;28;20515;-81
2021/07/02 08:12:40;;;;;;;3.33;3.03;;;22.50;99.90;;;;;;5095831;28;20032;-81
2021/07/02 08:15:07;;;;;;;3.30;3.10;;;22.60;99.90;;;;;;5095819;28;20044;-81
2021/07/02 08:17:34;;;;;;;3.35;3.08;;;22.80;99.70;;;;;;5095821;28;20436;-81
2021/07/02 08:20:01;;;;;;;3.22;2.92;;;22.90;99.20;;;;;;5095615;28;20036;-81
2021/07/02 08:22:27;;;;;;;3.63;2.83;;;23.00;99.10;;;;;;5095767;28;20044;-81
2021/07/02 08:24:54;;;;;;;3.00;2.80;;;23.10;98.80;;;;;;5095284;28;20050;-81
2021/07/02 08:27:21;;;;;;;4.53;2.40;;;23.40;98.60;;;;;;5095509;28;20499;-81
2021/07/02 08:29:47;;;;;;;4.63;2.80;;;23.40;98.90;;;;;;5095684;28;20035;-81
2021/07/02 08:32:13;;;;;;;3.75;3.40;;;23.50;97.20;;;;;;5095724;28;20032;-81
2021/07/02 08:34:38;;;;;;;4.38;3.28;;;23.70;97.80;;;;;;5095453;28;20484;-81
2021/07/02 08:37:04;;;;;;;5.75;3.20;;;23.70;97.30;;;;;;5095448;28;20032;-81
2021/07/02 08:39:30;;;;;;;2.97;2.67;;;23.90;96.90;;;;;;5094860;28;20450;-81
2021/07/02 08:41:56;;;;;;;3.58;2.80;;;24.00;96.90;;;;;;5095366;28;20039;-81
2021/07/02 08:44:22;;;;;;;3.28;2.75;;;24.00;95.90;;;;;;5093959;28;20442;-81
2021/07/02 08:46:49;;;;;;;5.13;2.97;;;24.10;95.80;;;;;;5093869;28;20024;-81
2021/07/02 08:49:19;;;;;;;3.15;2.80;;;24.20;94.50;;;;;;5095220;28;20028;-81
2021/07/02 08:51:45;;;;;;;5.20;2.78;;;24.10;93.40;;;;;;5095378;28;20023;-81
2021/07/02 08:54:17;;;;;;;3.50;2.80;;;24.20;94.80;;;;;;5094816;28;20028;-81
2021/07/02 08:56:58;;;;;;;2.78;2.58;;;24.30;94.50;;;;;;5095165;28;20262;-81
2021/07/02 08:59:27;;;;;;;5.45;3.15;;;24.50;94.00;;;;;;5094863;28;20031;-81
2021/07/02 09:01:53;;;;;;;3.97;2.58;;;24.70;94.10;;;;;;5093905;28;20028;-81
2021/07/02 09:04:18;;;;;;;2.40;2.30;;;24.70;92.90;;;;;;5075542;28;20032;-81
2021/07/02 09:06:58;;;;;;;2.80;2.60;;;25.00;93.40;;;;;;5074741;28;20027;-81
2021/07/02 09:09:24;;;;;;;5.15;2.83;;;24.90;91.30;;;;;;5074449;28;20063;-81
2021/07/02 09:11:49;;;;;;;5.50;2.97;;;24.70;90.70;;;;;;5074671;28;20480;-81
2021/07/02 09:14:23;;;;;;;4.05;3.13;;;24.90;92.40;;;;;;5074631;28;20039;-80
2021/07/02 09:16:49;;;;;;;2.72;2.53;;;25.30;91.60;;;;;;5074518;28;20013;-81
2021/07/02 09:19:27;;;;;;;5.53;3.00;;;25.50;89.80;;;;;;5073916;28;20529;-80
2021/07/02 09:22:15;;;;;;;4.00;2.95;;;25.60;89.50;;;;;;5074229;28;20511;-81
2021/07/02 09:24:44;;;;;;;5.75;3.10;;;25.70;90.70;;;;;;5074318;28;20101;-81
2021/07/02 09:27:31;;;;;;;2.67;2.47;;;25.90;87.40;;;;;;5074550;28;20021;-81
2021/07/02 09:30:03;;;;;;;3.40;2.75;;;25.90;86.30;;;;;;5074186;28;20073;-81
2021/07/02 09:32:32;;;;;;;6.50;2.90;;;26.10;87.50;;;;;;5074031;28;20020;-81
2021/07/02 09:35:01;;;;;;;3.03;2.80;;;26.10;83.40;;;;;;5074268;28;20082;-81
2021/07/02 09:37:37;;;;;;;3.42;2.70;;;26.30;82.50;;;;;;5073611;28;20486;-81
2021/07/02 09:40:18;;;;;;;2.75;2.55;;;26.70;85.30;;;;;;5073995;28;20120;-81
2021/07/02 09:42:44;;;;;;;3.13;2.92;;;26.90;83.50;;;;;;5073901;28;20024;-81
2021/07/02 09:45:13;;;;;;;4.20;2.58;;;27.20;79.30;;;;;;5074024;28;20085;-81
2021/07/02 09:47:40;;;;;;;3.35;3.05;;;27.40;76.40;;;;;;5072447;28;20039;-81
2021/07/02 09:50:20;;;;;;;2.72;2.53;;;27.90;79.20;;;;;;5073828;28;20028;-81
2021/07/02 09:53:09;;;;;;;3.92;2.58;;;28.20;72.80;;;;;;5073496;28;20020;-81
2021/07/02 09:55:56;;;;;;;2.92;2.72;;;28.30;71.90;;;;;;5073654;28;20040;-81
2021/07/02 09:58:26;;;;;;;2.97;2.70;;;28.10;72.20;;;;;;5073433;28;20055;-81
2021/07/02 10:00:53;;;;;;;3.30;3.05;;;28.10;69.30;;;;;;5073672;28;20043;-81
2021/07/02 10:03:28;;;;;;;3.85;2.88;;;28.10;67.80;;;;;;5073335;28;20024;-81
2021/07/02 10:06:02;;;;;;;3.03;2.83;;;28.10;61.00;;;;;;5073126;28;20028;-81
2021/07/02 10:08:33;;;;;;;3.08;2.85;;;28.20;66.40;;;;;;5073383;28;20396;-81
2021/07/02 10:11:01;;;;;;;3.80;2.88;;;28.60;64.90;;;;;;5073454;28;20043;-81
2021/07/02 10:13:32;;;;;;;3.60;3.30;;;29.10;65.10;;;;;;5073204;28;20035;-81
2021/07/02 10:16:00;;;;;;;3.40;3.10;;;29.40;60.10;;;;;;5073362;28;20369;-81
2021/07/02 10:18:28;;;;;;;4.05;3.00;;;29.70;61.50;;;;;;5073303;28;20025;-81
2021/07/02 10:20:56;;;;;;;6.63;3.10;;;29.40;53.90;;;;;;5072585;28;20102;-81
2021/07/02 10:23:29;;;;;;;6.43;2.85;;;29.30;55.50;;;;;;5073124;28;20070;-81
2021/07/02 10:25:56;;;;;;;3.55;2.85;;;29.60;56.10;;;;;;5073062;28;20102;-81
2021/07/02 10:28:23;;;;;;;4.32;3.22;;;31.10;53.10;;;;;;5073311;28;20060;-81
2021/07/02 10:30:50;;;;;;;3.45;3.15;;;33.20;41.00;;;;;;5071096;28;20500;-81
2021/07/02 10:33:19;;;;;;;4.00;3.70;;;33.80;30.50;;;;;;5073032;28;20028;-81
2021/07/02 10:35:53;;;;;;;5.15;3.08;;;34.30;24.70;;;;;;5072492;28;20032;-81
2021/07/02 10:38:19;;;;;;;4.05;3.10;;;35.10;17.40;;;;;;5073127;28;20095;-81
2021/07/02 10:40:45;;;;;;;3.60;2.97;;;34.90;13.60;;;;;;5073010;28;20029;-81
2021/07/02 10:43:13;;;;;;;3.00;2.80;;;34.90;11.50;;;;;;5073046;28;20407;-80
2021/07/02 10:46:08;;;;;;;3.58;3.28;;;34.80;11.90;;;;;;5072712;28;20060;-81
2021/07/02 10:48:55;;;;;;;3.80;3.47;;;36.80;10.30;;;;;;5072344;28;20025;-81
2021/07/02 10:51:39;;;;;;;6.15;3.03;;;37.50;4.00;;;;;;5072707;28;20108;-81
2021/07/02 10:54:15;;;;;;;4.63;2.80;;;37.70;2.00;;;;;;5072713;28;20475;-81
2021/07/02 10:56:44;;;;;;;3.33;2.78;;;34.70;3.10;;;;;;5072586;28;20039;-81
2021/07/02 10:59:15;;;;;;;3.13;2.83;;;33.50;7.20;;;;;;5072632;28;20031;-81
2021/07/02 11:02:06;;;;;;;4.32;3.30;;;32.60;9.70;;;;;;5071236;28;20036;-81
2021/07/02 11:04:48;;;;;;;3.63;3.33;;;33.80;6.70;;;;;;5072177;28;20048;-81
2021/07/02 11:07:22;;;;;;;5.20;3.38;;;35.10;5.20;;;;;;5071285;28;20056;-81
2021/07/02 11:10:00;;;;;;;4.05;3.13;;;37.00;1.00;;;;;;5072584;28;20059;-81
2021/07/02 11:12:27;;;;;;;3.78;3.30;;;38.30;1.00;;;;;;5071139;28;20064;-81
2021/07/02 11:14:53;;;;;;;3.30;3.10;;;38.60;1.00;;;;;;5072523;28;20063;-81
2021/07/02 11:17:26;;;;;;;3.25;2.95;;;39.80;1.00;;;;;;5072533;28;20536;-79
2021/07/02 11:20:07;;;;;;;3.80;3.60;;;39.70;1.00;;;;;;5072158;28;20500;-79
2021/07/02 11:22:41;;;;;;;3.35;3.08;;;40.80;1.00;;;;;;5072399;28;20036;-78
2021/07/02 11:28:12;;;;;;;3.50;3.20;;;41.20;1.00;;;;;;5065330;28;20222;-79
2021/07/02 11:30:40;;;;;;;3.80;3.50;;;41.60;1.00;;;;;;5072082;28;20109;-79
2021/07/02 11:33:08;;;;;;;3.42;3.22;;;41.10;1.00;;;;;;5072170;28;20441;-79
2021/07/02 11:35:38;;;;;;;4.82;3.25;;;41.00;1.00;;;;;;5070732;28;20392;-79
2021/07/02 11:38:14;;;;;;;5.78;3.90;;;40.90;1.00;;;;;;5072151;28;20429;-79
2021/07/02 11:40:54;;;;;;;3.97;3.50;;;40.90;1.00;;;;;;5072017;28;20431;-79
2021/07/02 11:43:39;;;;;;;3.53;3.22;;;40.90;1.00;;;;;;5076240;28;20448;-79
2021/07/02 11:46:10;;;;;;;3.70;3.50;;;41.20;1.00;;;;;;5076567;28;20029;-78
2021/07/02 11:48:38;;;;;;;4.18;3.65;;;41.70;1.00;;;;;;5075728;28;20040;-79
2021/07/02 11:51:17;;;;;;;3.70;3.40;;;42.60;1.00;;;;;;5076241;28;20108;-78
2021/07/02 11:53:43;;;;;;;;;;;41.80;1.00;;;;;;5076466;28;20025;-78
2021/07/02 11:56:09;;;;;;;3.42;3.22;;;41.50;1.00;;;;;;5075993;28;19905;-78
2021/07/02 11:58:42;;;;;;;7.90;3.75;;;42.80;1.00;;;;;;5075833;28;20079;-78
2021/07/02 12:01:10;;;;;;;3.58;3.28;;;41.70;1.00;;;;;;5075684;28;20112;-78
2021/07/02 12:03:37;;;;;;;3.47;3.27;;;41.50;1.00;;;;;;5075621;28;20060;-78
2021/07/02 12:06:04;;;;;;;8.40;4.90;;;41.70;1.00;;;;;;5075722;28;20326;-78
2021/07/02 12:08:32;;;;;;;5.72;3.30;;;41.50;1.00;;;;;;5075925;28;20489;-78
2021/07/02 12:11:03;;;;;;;3.83;3.53;;;42.40;1.00;;;;;;5075659;28;20081;-78
2021/07/02 12:13:33;;;;;;;3.80;3.60;;;43.10;1.00;;;;;;5075634;28;20107;-78
2021/07/02 12:16:04;;;;;;;4.18;3.80;;;43.80;1.00;;;;;;5075261;28;20021;-78
2021/07/02 12:18:30;;;;;;;4.88;3.90;;;43.60;1.00;;;;;;5075727;28;20388;-78
2021/07/02 12:21:09;;;;;;;6.78;3.80;;;44.10;1.00;;;;;;5075240;28;20037;-78
2021/07/02 12:23:43;;;;;;;4.10;3.80;;;44.30;1.00;;;;;;5075391;28;20051;-78
2021/07/02 12:26:17;;;;;;;4.20;3.80;;;44.60;1.00;;;;;;5075442;28;20025;-78
2021/07/02 12:29:12;;;;;;;4.97;3.22;;;44.10;1.00;;;;;;5075450;28;20017;-78
2021/07/02 12:31:43;;;;;;;4.25;3.90;;;44.00;1.00;;;;;;5075084;28;20025;-78
2021/07/02 12:34:21;;;;;;;4.38;3.75;;;43.60;1.00;;;;;;5075318;28;20025;-78
2021/07/02 12:37:00;;;;;;;4.68;4.00;;;44.00;1.00;;;;;;5073707;28;20028;-79
2021/07/02 12:39:31;;;;;;;3.80;3.60;;;44.60;1.00;;;;;;5075140;28;20094;-78
2021/07/02 12:42:02;;;;;;;3.70;3.50;;;44.50;1.00;;;;;;5075056;28;20025;-78
2021/07/02 12:44:30;;;;;;;4.05;3.75;;;43.80;1.00;;;;;;5073125;28;20032;-78
2021/07/02 12:46:57;;;;;;;4.35;4.05;;;43.70;1.00;;;;;;5074562;28;20111;-78
2021/07/02 12:49:29;;;;;;;5.15;3.83;;;42.90;1.00;;;;;;5074780;28;20020;-78
2021/07/02 12:54:52;;;;;;;5.07;4.60;;;43.60;1.00;;;;;;5074198;28;20044;-78
2021/07/02 12:57:22;;;;;;;4.05;3.63;;;44.80;1.00;;;;;;5074942;28;20017;-78
2021/07/02 12:59:51;;;;;;;4.20;4.00;;;44.50;1.00;;;;;;5074537;28;20035;-78
2021/07/02 13:02:39;;;;;;;5.25;4.35;;;43.90;1.00;;;;;;5074049;28;20094;-78